Terminal Aerodrome Forecast
Issued by NWS

Home | Current Version | Previous Version | Text Only | Print | Product List | Glossary On
Versions: 1 2 3 4 5 6 7 8 9 10 11 12 13 14
051
FTUS44 KJAN 191745
TAFGTR
TAF
KGTR 191745Z 1918/2018 19006KT P6SM RA BKN008 OVC010
     FM192200 19008KT 5SM BR VCTS SCT015CB BKN100
     FM200300 20004KT 4SM BR SCT015 BKN050
     FM200700 18005KT 4SM BR OVC003=

USA.gov is the U.S. government's official web portal to all federal, state and local government web resources and services.